createdAt,value
2024-02-21T00:00:07.008Z,4.65
2024-02-21T00:02:34.420Z,3.53
2024-02-21T00:05:03.935Z,3.20
2024-02-21T00:07:31.507Z,3.42
2024-02-21T00:09:59.062Z,3.72
2024-02-21T00:12:26.430Z,2.45
2024-02-21T00:14:53.798Z,3.72
2024-02-21T00:17:21.169Z,3.88
2024-02-21T00:19:48.609Z,2.95
2024-02-21T00:22:17.352Z,3.90
2024-02-21T00:24:44.754Z,3.08
2024-02-21T00:27:12.109Z,3.38
2024-02-21T00:29:39.479Z,3.75
2024-02-21T00:32:07.286Z,2.80
2024-02-21T00:34:34.801Z,3.45
2024-02-21T00:37:02.227Z,3.20
2024-02-21T00:39:31.203Z,3.22
2024-02-21T00:41:58.648Z,3.10
2024-02-21T00:44:26.122Z,3.20
2024-02-21T00:49:21.059Z,3.60
2024-02-21T00:51:49.091Z,3.95
2024-02-21T00:54:17.188Z,3.15
2024-02-21T00:56:46.030Z,2.95
2024-02-21T00:59:13.473Z,3.47
2024-02-21T01:01:43.111Z,3.75
2024-02-21T01:04:11.021Z,3.35
2024-02-21T01:06:38.507Z,3.05
2024-02-21T01:09:05.934Z,2.75
2024-02-21T01:11:33.393Z,2.72
2024-02-21T01:14:02.208Z,4.10
2024-02-21T01:16:29.642Z,3.30
2024-02-21T01:18:57.163Z,3.22
2024-02-21T01:21:24.570Z,3.35
2024-02-21T01:23:51.960Z,2.88
2024-02-21T01:26:19.412Z,2.92
2024-02-21T01:28:46.934Z,3.45
2024-02-21T01:31:16.310Z,3.60
2024-02-21T01:33:43.871Z,3.08
2024-02-21T01:36:11.368Z,3.28
2024-02-21T01:38:38.809Z,3.30
2024-02-21T01:41:06.296Z,3.30
2024-02-21T01:43:33.759Z,2.92
2024-02-21T01:46:01.265Z,3.15
2024-02-21T01:48:30.076Z,3.30
2024-02-21T01:50:58.652Z,3.50
2024-02-21T01:53:29.676Z,3.22
2024-02-21T01:55:57.416Z,3.35
2024-02-21T01:58:25.770Z,4.05
2024-02-21T02:00:53.442Z,3.45
2024-02-21T02:03:20.909Z,3.05
2024-02-21T02:05:50.317Z,3.03
2024-02-21T02:08:18.331Z,3.40
2024-02-21T02:10:46.833Z,3.50
2024-02-21T02:13:14.481Z,4.18
2024-02-21T02:15:42.390Z,3.20
2024-02-21T02:18:09.833Z,4.35
2024-02-21T02:20:37.599Z,4.10
2024-02-21T02:23:08.948Z,4.50
2024-02-21T02:25:38.083Z,4.35
2024-02-21T02:28:05.702Z,3.50
2024-02-21T02:30:34.140Z,3.90
2024-02-21T02:33:01.619Z,3.50
2024-02-21T02:35:29.074Z,3.75
2024-02-21T02:37:56.532Z,4.88
2024-02-21T02:40:24.026Z,4.00
2024-02-21T02:42:56.059Z,3.85
2024-02-21T02:45:24.376Z,4.57
2024-02-21T02:47:51.792Z,4.03
2024-02-21T02:50:19.219Z,3.60
2024-02-21T02:52:46.654Z,4.13
2024-02-21T02:55:14.167Z,4.20
2024-02-21T02:57:42.772Z,4.35
2024-02-21T03:00:12.219Z,4.45
2024-02-21T03:02:40.284Z,3.45
2024-02-21T03:05:13.626Z,3.83
2024-02-21T03:07:41.068Z,4.38
2024-02-21T03:10:08.745Z,3.72
2024-02-21T03:12:36.113Z,4.70
2024-02-21T03:15:03.602Z,3.35
2024-02-21T03:17:32.828Z,3.85
2024-02-21T03:20:01.044Z,4.28
2024-02-21T03:22:28.613Z,3.90
2024-02-21T03:24:55.992Z,3.95
2024-02-21T03:27:23.421Z,3.90
2024-02-21T03:29:50.817Z,3.88
2024-02-21T03:32:18.267Z,3.88
2024-02-21T03:34:47.387Z,5.28
2024-02-21T03:37:15.775Z,5.10
2024-02-21T03:39:43.256Z,5.32
2024-02-21T03:42:10.627Z,5.40
2024-02-21T03:44:38.737Z,5.28
2024-02-21T03:47:06.569Z,5.25
2024-02-21T03:49:34.128Z,4.97
2024-02-21T03:52:02.945Z,4.75
2024-02-21T03:54:30.321Z,5.15
2024-02-21T03:56:57.723Z,6.07
2024-02-21T03:59:25.110Z,5.40
2024-02-21T04:01:53.533Z,9.43
2024-02-21T04:04:20.986Z,8.63
2024-02-21T04:06:49.007Z,27.35
2024-02-21T04:09:17.926Z,11.00
2024-02-21T04:11:45.678Z,7.37
2024-02-21T04:14:13.454Z,8.07
2024-02-21T04:16:41.391Z,6.93
2024-02-21T04:19:09.554Z,6.90
2024-02-21T04:21:37.323Z,7.28
2024-02-21T04:24:07.021Z,6.70
2024-02-21T04:26:36.257Z,6.70
2024-02-21T04:29:03.924Z,6.53
2024-02-21T04:31:31.481Z,6.65
2024-02-21T04:33:58.893Z,8.57
2024-02-21T04:36:26.302Z,6.70
2024-02-21T04:38:53.673Z,5.50
2024-02-21T04:41:21.037Z,5.40
2024-02-21T04:43:50.389Z,6.00
2024-02-21T04:46:17.933Z,6.15
2024-02-21T04:48:45.360Z,5.47
2024-02-21T04:51:13.887Z,5.55
2024-02-21T04:53:41.567Z,6.15
2024-02-21T04:56:09.012Z,5.75
2024-02-21T04:58:39.582Z,4.60
2024-02-21T05:01:08.942Z,5.25
2024-02-21T05:03:36.488Z,15.85
2024-02-21T05:06:04.118Z,6.32
2024-02-21T05:08:31.533Z,7.28
2024-02-21T05:10:58.934Z,6.07
2024-02-21T05:13:26.866Z,5.00
2024-02-21T05:15:54.306Z,7.13
2024-02-21T05:18:23.239Z,6.07
2024-02-21T05:20:50.699Z,6.17
2024-02-21T05:23:18.119Z,5.10
2024-02-21T05:25:45.515Z,4.53
2024-02-21T05:28:12.924Z,4.68
2024-02-21T05:30:41.946Z,5.07
2024-02-21T05:33:08.623Z,5.67
2024-02-21T05:35:37.593Z,6.15
2024-02-21T05:38:07.869Z,5.10
2024-02-21T05:40:35.425Z,4.80
2024-02-21T05:43:03.160Z,5.15
2024-02-21T05:45:30.532Z,5.63
2024-02-21T05:47:58.376Z,5.70
2024-02-21T05:50:26.040Z,5.68
2024-02-21T05:52:55.040Z,7.05
2024-02-21T05:55:22.492Z,4.20
2024-02-21T05:57:49.989Z,6.07
2024-02-21T06:00:17.834Z,6.88
2024-02-21T06:02:45.238Z,5.63
2024-02-21T06:05:12.692Z,6.07
2024-02-21T06:07:40.338Z,5.15
2024-02-21T06:10:09.764Z,5.43
2024-02-21T06:12:37.238Z,4.80
2024-02-21T06:15:04.894Z,5.80
2024-02-21T06:17:32.318Z,6.47
2024-02-21T06:19:59.957Z,5.38
2024-02-21T06:22:27.426Z,5.05
2024-02-21T06:24:55.324Z,5.40
2024-02-21T06:27:25.545Z,5.95
2024-02-21T06:29:52.976Z,5.90
2024-02-21T06:32:20.391Z,6.35
2024-02-21T06:34:47.825Z,5.82
2024-02-21T06:37:15.256Z,5.22
2024-02-21T06:39:42.846Z,5.25
2024-02-21T06:42:10.211Z,3.40
2024-02-21T06:44:41.665Z,4.93
2024-02-21T06:47:09.833Z,4.75
2024-02-21T06:49:38.016Z,4.97
2024-02-21T06:52:06.045Z,3.17
2024-02-21T06:54:33.458Z,5.22
2024-02-21T06:57:01.045Z,5.05
2024-02-21T06:59:28.391Z,5.25
2024-02-21T07:01:57.658Z,4.93
2024-02-21T07:04:25.231Z,4.03
2024-02-21T07:06:52.860Z,5.20
2024-02-21T07:09:20.336Z,4.70
2024-02-21T07:11:47.781Z,5.85
2024-02-21T07:14:15.929Z,4.93
2024-02-21T07:16:43.438Z,4.68
2024-02-21T07:19:12.406Z,4.75
2024-02-21T07:21:42.389Z,5.75
2024-02-21T07:24:09.799Z,4.78
2024-02-21T07:26:37.226Z,5.80
2024-02-21T07:29:04.668Z,5.07
2024-02-21T07:31:32.489Z,4.88
2024-02-21T07:33:59.938Z,5.70
2024-02-21T07:36:30.074Z,5.22
2024-02-21T07:38:57.507Z,3.83
2024-02-21T07:41:24.938Z,5.13
2024-02-21T07:43:53.049Z,5.40
2024-02-21T07:46:20.598Z,5.55
2024-02-21T07:48:48.229Z,5.15
2024-02-21T07:51:17.822Z,5.93
2024-02-21T07:53:47.261Z,5.25
2024-02-21T07:56:14.953Z,5.38
2024-02-21T07:58:42.397Z,5.60
2024-02-21T08:01:10.051Z,5.13
2024-02-21T08:03:37.467Z,5.20
2024-02-21T08:06:05.309Z,3.25
2024-02-21T08:08:32.705Z,6.05
2024-02-21T08:11:01.542Z,6.00
2024-02-21T08:13:30.037Z,5.53
2024-02-21T08:15:58.236Z,5.38
2024-02-21T08:18:25.864Z,7.95
2024-02-21T08:20:53.367Z,9.95
2024-02-21T08:23:21.127Z,18.90
2024-02-21T08:25:48.675Z,6.47
2024-02-21T08:28:17.491Z,8.00
2024-02-21T08:30:49.094Z,5.95
2024-02-21T08:33:17.707Z,4.80
2024-02-21T08:35:45.238Z,4.28
2024-02-21T08:38:12.691Z,4.18
2024-02-21T08:40:40.190Z,7.03
2024-02-21T08:43:07.614Z,8.77
2024-02-21T08:45:36.359Z,16.52
2024-02-21T08:48:04.034Z,4.60
2024-02-21T08:50:31.667Z,4.20
2024-02-21T08:52:59.452Z,4.50
2024-02-21T08:55:27.181Z,3.97
2024-02-21T08:57:54.651Z,5.05
2024-02-21T09:00:27.947Z,4.43
2024-02-21T09:02:57.860Z,4.03
2024-02-21T09:05:26.262Z,3.72
2024-02-21T09:07:53.939Z,4.60
2024-02-21T09:10:21.439Z,3.85
2024-02-21T09:12:49.453Z,7.70
2024-02-21T09:15:16.973Z,3.95
2024-02-21T09:17:44.393Z,4.20
2024-02-21T09:20:13.631Z,3.67
2024-02-21T09:22:41.794Z,4.03
2024-02-21T09:25:12.556Z,3.75
2024-02-21T09:27:40.139Z,4.25
2024-02-21T09:30:08.499Z,3.75
2024-02-21T09:32:36.109Z,3.03
2024-02-21T09:35:04.070Z,3.92
2024-02-21T09:37:33.038Z,3.50
2024-02-21T09:40:00.471Z,3.83
2024-02-21T09:42:29.582Z,3.92
2024-02-21T09:44:57.002Z,3.78
2024-02-21T09:47:26.444Z,3.20
2024-02-21T09:49:54.310Z,3.35
2024-02-21T09:52:22.763Z,3.83
2024-02-21T09:54:53.619Z,3.40
2024-02-21T09:57:22.121Z,3.55
2024-02-21T09:59:51.164Z,2.73
2024-02-21T10:02:18.834Z,3.10
2024-02-21T10:04:46.479Z,3.42
2024-02-21T10:07:14.727Z,3.67
2024-02-21T10:09:43.214Z,3.50
2024-02-21T10:12:13.232Z,3.70
2024-02-21T10:14:41.368Z,3.47
2024-02-21T10:17:11.484Z,2.92
2024-02-21T10:19:41.101Z,3.63
2024-02-21T10:24:38.628Z,3.33
2024-02-21T10:27:09.218Z,2.90
2024-02-21T10:29:38.080Z,2.70
2024-02-21T10:32:06.413Z,2.85
2024-02-21T10:34:33.978Z,2.95
2024-02-21T10:37:02.135Z,3.03
2024-02-21T10:39:31.480Z,2.78
2024-02-21T10:42:01.604Z,3.22
2024-02-21T10:46:57.662Z,2.88
2024-02-21T10:49:26.998Z,2.60
2024-02-21T10:54:27.317Z,2.90
2024-02-21T10:56:55.955Z,2.97
2024-02-21T10:59:24.106Z,3.00
2024-02-21T11:01:54.497Z,2.50
2024-02-21T11:04:26.176Z,3.13
2024-02-21T11:06:54.426Z,3.15
2024-02-21T11:09:31.385Z,3.13
2024-02-21T11:11:59.841Z,2.90
2024-02-21T11:14:28.581Z,2.77
2024-02-21T11:16:57.197Z,2.60
2024-02-21T11:19:27.349Z,2.45
2024-02-21T11:21:55.745Z,2.88
2024-02-21T11:24:30.915Z,2.88
2024-02-21T11:26:58.688Z,2.35
2024-02-21T11:29:26.788Z,2.85
2024-02-21T11:31:54.960Z,2.40
2024-02-21T11:34:22.600Z,2.58
2024-02-21T11:36:52.024Z,2.40
2024-02-21T11:41:47.632Z,2.20
2024-02-21T11:44:15.026Z,2.75
2024-02-21T11:46:42.516Z,2.10
2024-02-21T11:49:09.973Z,2.33
2024-02-21T11:51:37.394Z,2.40
2024-02-21T11:54:07.678Z,2.08
2024-02-21T11:56:36.802Z,2.72
2024-02-21T11:59:04.495Z,2.17
2024-02-21T12:01:32.433Z,2.70
2024-02-21T12:03:59.824Z,2.35
2024-02-21T12:06:27.278Z,2.17
2024-02-21T12:08:59.755Z,2.08
2024-02-21T12:11:28.475Z,2.67
2024-02-21T12:14:04.609Z,2.70
2024-02-21T12:16:32.426Z,2.20
2024-02-21T12:19:00.259Z,1.95
2024-02-21T12:21:29.536Z,2.20
2024-02-21T12:23:57.231Z,1.88
2024-02-21T12:26:24.893Z,2.60
2024-02-21T12:28:53.699Z,2.53
2024-02-21T12:31:21.432Z,2.40
2024-02-21T12:33:49.555Z,2.50
2024-02-21T12:36:16.990Z,2.35
2024-02-21T12:38:44.960Z,2.30
2024-02-21T12:41:12.323Z,1.88
2024-02-21T12:43:39.789Z,2.35
2024-02-21T12:46:08.945Z,2.00
2024-02-21T12:48:36.294Z,2.60
2024-02-21T12:51:04.020Z,2.17
2024-02-21T12:53:33.749Z,1.60
2024-02-21T12:56:01.982Z,2.13
2024-02-21T12:58:32.699Z,4.30
2024-02-21T13:01:00.264Z,2.05
2024-02-21T13:03:31.207Z,2.25
2024-02-21T13:06:00.552Z,2.05
2024-02-21T13:08:28.224Z,1.90
2024-02-21T13:10:56.116Z,2.45
2024-02-21T13:13:23.652Z,1.88
2024-02-21T13:15:51.057Z,2.40
2024-02-21T13:18:18.541Z,2.33
2024-02-21T13:20:47.406Z,1.60
2024-02-21T13:23:14.929Z,1.90
2024-02-21T13:25:42.554Z,1.67
2024-02-21T13:28:10.860Z,1.92
2024-02-21T13:30:38.302Z,1.70
2024-02-21T13:33:05.955Z,2.05
2024-02-21T13:35:33.519Z,1.98
2024-02-21T13:38:02.420Z,1.92
2024-02-21T13:40:29.901Z,1.80
2024-02-21T13:42:57.330Z,1.98
2024-02-21T13:45:24.666Z,1.83
2024-02-21T13:47:52.100Z,1.48
2024-02-21T13:50:20.391Z,1.60
2024-02-21T13:52:47.822Z,2.17
2024-02-21T13:55:16.654Z,1.52
2024-02-21T13:57:44.003Z,1.70
2024-02-21T14:00:12.355Z,1.60
2024-02-21T14:02:39.993Z,2.13
2024-02-21T14:05:07.918Z,1.63
2024-02-21T14:07:35.400Z,2.22
2024-02-21T14:10:02.800Z,1.90
2024-02-21T14:12:33.031Z,1.33
2024-02-21T14:15:00.394Z,1.80
2024-02-21T14:17:27.843Z,2.10
2024-02-21T14:19:55.345Z,2.35
2024-02-21T14:22:22.776Z,1.95
2024-02-21T14:24:50.171Z,1.67
2024-02-21T14:27:17.656Z,1.90
2024-02-21T14:29:46.370Z,1.70
2024-02-21T14:32:14.941Z,2.00
2024-02-21T14:34:42.624Z,2.20
2024-02-21T14:37:10.102Z,2.28
2024-02-21T14:39:37.608Z,2.30
2024-02-21T14:42:05.052Z,2.78
2024-02-21T14:44:32.442Z,2.20
2024-02-21T14:47:01.567Z,1.83
2024-02-21T14:49:29.895Z,1.73
2024-02-21T14:51:57.447Z,1.80
2024-02-21T14:54:24.941Z,2.42
2024-02-21T14:56:52.340Z,2.75
2024-02-21T14:59:26.017Z,2.05
2024-02-21T15:02:02.323Z,2.25
2024-02-21T15:04:29.934Z,3.72
2024-02-21T15:06:57.520Z,2.13
2024-02-21T15:09:25.037Z,1.40
2024-02-21T15:11:52.461Z,2.10
2024-02-21T15:14:24.415Z,2.40
2024-02-21T15:16:53.107Z,1.52
2024-02-21T15:19:21.926Z,2.45
2024-02-21T15:21:49.347Z,2.13
2024-02-21T15:24:17.736Z,2.30
2024-02-21T15:26:45.168Z,2.00
2024-02-21T15:29:12.691Z,2.30
2024-02-21T15:31:40.192Z,1.95
2024-02-21T15:34:07.946Z,1.60
2024-02-21T15:36:36.723Z,2.40
2024-02-21T15:39:04.333Z,2.22
2024-02-21T15:41:31.776Z,2.22
2024-02-21T15:44:00.507Z,2.40
2024-02-21T15:46:28.041Z,2.00
2024-02-21T15:48:55.965Z,2.00
2024-02-21T15:51:24.479Z,1.90
2024-02-21T15:53:53.299Z,1.92
2024-02-21T15:56:20.977Z,2.10
2024-02-21T15:58:48.468Z,2.38
2024-02-21T16:01:16.075Z,2.30
2024-02-21T16:03:43.554Z,2.15
2024-02-21T16:06:11.250Z,2.53
2024-02-21T16:08:41.949Z,2.13
2024-02-21T16:11:15.498Z,1.95
2024-02-21T16:13:43.004Z,2.42
2024-02-21T16:16:10.432Z,2.47
2024-02-21T16:18:37.777Z,2.20
2024-02-21T16:21:06.355Z,2.40
2024-02-21T16:23:34.582Z,2.40
2024-02-21T16:26:02.566Z,1.95
2024-02-21T16:28:31.385Z,2.78
2024-02-21T16:30:59.275Z,2.15
2024-02-21T16:33:26.889Z,2.33
2024-02-21T16:35:55.717Z,3.33
2024-02-21T16:38:23.314Z,2.07
2024-02-21T16:40:51.332Z,2.60
2024-02-21T16:43:18.830Z,2.20
2024-02-21T16:45:47.685Z,2.70
2024-02-21T16:48:15.090Z,2.17
2024-02-21T16:50:49.599Z,2.35
2024-02-21T16:53:25.816Z,2.47
2024-02-21T16:55:54.058Z,1.95
2024-02-21T16:58:21.607Z,1.60
2024-02-21T17:00:50.555Z,3.15
2024-02-21T17:03:21.234Z,1.43
2024-02-21T17:05:54.920Z,2.25
2024-02-21T17:08:26.293Z,2.30
2024-02-21T17:10:54.089Z,1.58
2024-02-21T17:13:22.025Z,1.92
2024-02-21T17:15:51.221Z,2.00
2024-02-21T17:18:18.718Z,2.95
2024-02-21T17:20:46.239Z,2.70
2024-02-21T17:23:14.226Z,2.08
2024-02-21T17:25:42.004Z,1.70
2024-02-21T17:28:09.579Z,2.17
2024-02-21T17:30:37.213Z,2.03
2024-02-21T17:33:08.217Z,2.20
2024-02-21T17:35:36.088Z,2.20
2024-02-21T17:38:04.379Z,2.22
2024-02-21T17:40:31.950Z,2.47
2024-02-21T17:42:59.379Z,1.75
2024-02-21T17:45:26.868Z,2.00
2024-02-21T17:47:54.344Z,1.30
2024-02-21T17:50:23.430Z,1.95
2024-02-21T17:52:50.981Z,2.28
2024-02-21T17:55:18.439Z,1.63
2024-02-21T17:57:46.095Z,1.30
2024-02-21T18:00:13.823Z,2.40
2024-02-21T18:02:41.205Z,1.90
2024-02-21T18:05:09.039Z,1.90
2024-02-21T18:07:38.022Z,2.20
2024-02-21T18:10:05.893Z,1.70
2024-02-21T18:12:33.936Z,1.42
2024-02-21T18:15:02.087Z,2.50
2024-02-21T18:17:29.566Z,1.60
2024-02-21T18:19:57.679Z,1.95
2024-02-21T18:22:25.069Z,1.98
2024-02-21T18:24:53.767Z,2.03
2024-02-21T18:27:23.109Z,1.80
2024-02-21T18:29:50.659Z,1.77
2024-02-21T18:32:18.668Z,1.80
2024-02-21T18:34:46.232Z,1.95
2024-02-21T18:37:13.636Z,1.77
2024-02-21T18:39:41.006Z,1.35
2024-02-21T18:42:09.707Z,2.25
2024-02-21T18:44:37.994Z,1.67
2024-02-21T18:47:05.786Z,1.67
2024-02-21T18:49:33.361Z,2.08
2024-02-21T18:52:01.157Z,1.60
2024-02-21T18:54:28.569Z,1.42
2024-02-21T18:56:55.946Z,1.80
2024-02-21T18:59:24.639Z,1.73
2024-02-21T19:01:52.025Z,2.22
2024-02-21T19:04:19.439Z,1.95
2024-02-21T19:06:47.282Z,1.63
2024-02-21T19:09:14.646Z,1.90
2024-02-21T19:11:42.054Z,1.70
2024-02-21T19:14:09.558Z,2.50
2024-02-21T19:16:38.399Z,2.08
2024-02-21T19:19:05.834Z,2.00
2024-02-21T19:21:33.224Z,2.25
2024-02-21T19:24:00.629Z,2.60
2024-02-21T19:26:28.001Z,2.00
2024-02-21T19:28:55.787Z,2.10
2024-02-21T19:31:23.295Z,2.10
2024-02-21T19:33:52.086Z,2.08
2024-02-21T19:36:20.340Z,2.53
2024-02-21T19:38:49.268Z,2.10
2024-02-21T19:41:17.032Z,1.30
2024-02-21T19:43:44.506Z,1.60
2024-02-21T19:46:12.610Z,1.50
2024-02-21T19:48:40.211Z,1.90
2024-02-21T19:51:08.949Z,1.60
2024-02-21T19:53:36.401Z,2.10
2024-02-21T19:56:03.915Z,1.73
2024-02-21T19:58:33.271Z,2.15
2024-02-21T20:01:00.800Z,1.92
2024-02-21T20:03:28.993Z,1.70
2024-02-21T20:05:56.497Z,1.75
2024-02-21T20:08:25.387Z,2.03
2024-02-21T20:10:53.062Z,1.33
2024-02-21T20:13:20.628Z,1.58
2024-02-21T20:15:48.020Z,1.20
2024-02-21T20:18:15.476Z,1.80
2024-02-21T20:20:43.792Z,1.15
2024-02-21T20:23:16.307Z,1.75
2024-02-21T20:25:45.438Z,1.60
2024-02-21T20:28:14.603Z,1.48
2024-02-21T20:30:42.040Z,1.63
2024-02-21T20:33:09.541Z,1.55
2024-02-21T20:35:37.135Z,1.90
2024-02-21T20:38:06.606Z,1.52
2024-02-21T20:40:34.050Z,1.50
2024-02-21T20:43:04.727Z,1.90
2024-02-21T20:45:32.135Z,1.60
2024-02-21T20:47:59.582Z,2.38
2024-02-21T20:50:27.078Z,1.60
2024-02-21T20:52:54.510Z,2.03
2024-02-21T20:55:25.645Z,2.00
2024-02-21T20:57:53.743Z,2.08
2024-02-21T21:00:23.694Z,2.20
2024-02-21T21:02:51.220Z,2.00
2024-02-21T21:05:19.515Z,2.05
2024-02-21T21:07:47.089Z,2.15
2024-02-21T21:10:16.744Z,2.40
2024-02-21T21:12:44.238Z,2.30
2024-02-21T21:15:12.113Z,2.13
2024-02-21T21:17:40.922Z,2.88
2024-02-21T21:20:12.813Z,1.80
2024-02-21T21:22:41.590Z,2.42
2024-02-21T21:25:10.086Z,1.52
2024-02-21T21:27:37.789Z,2.05
2024-02-21T21:30:05.934Z,1.30
2024-02-21T21:32:33.649Z,1.48
2024-02-21T21:35:02.453Z,1.40
2024-02-21T21:37:30.188Z,1.38
2024-02-21T21:39:59.436Z,1.70
2024-02-21T21:42:26.961Z,1.52
2024-02-21T21:44:54.382Z,1.13
2024-02-21T21:47:21.975Z,1.30
2024-02-21T21:49:49.787Z,1.27
2024-02-21T21:52:18.506Z,0.95
2024-02-21T21:54:45.922Z,1.42
2024-02-21T21:57:13.296Z,1.00
2024-02-21T21:59:40.678Z,1.30
2024-02-21T22:02:08.170Z,1.23
2024-02-21T22:04:36.199Z,1.60
2024-02-21T22:07:03.676Z,1.13
2024-02-21T22:09:32.439Z,1.30
2024-02-21T22:11:59.924Z,1.35
2024-02-21T22:14:27.974Z,1.30
2024-02-21T22:16:56.416Z,1.25
2024-02-21T22:19:23.898Z,0.82
2024-02-21T22:21:51.284Z,1.83
2024-02-21T22:24:20.044Z,1.20
2024-02-21T22:26:51.422Z,1.30
2024-02-21T22:29:18.858Z,1.40
2024-02-21T22:31:46.272Z,1.30
2024-02-21T22:34:13.882Z,1.27
2024-02-21T22:36:41.503Z,1.15
2024-02-21T22:39:09.843Z,0.70
2024-02-21T22:41:37.353Z,1.30
2024-02-21T22:44:06.240Z,1.10
2024-02-21T22:46:33.696Z,1.07
2024-02-21T22:49:01.164Z,1.33
2024-02-21T22:51:29.457Z,1.40
2024-02-21T22:53:58.597Z,0.90
2024-02-21T22:56:26.017Z,1.30
2024-02-21T22:58:53.589Z,1.10
2024-02-21T23:01:22.373Z,1.15
2024-02-21T23:03:49.870Z,0.85
2024-02-21T23:06:17.400Z,1.08
2024-02-21T23:08:44.836Z,1.13
2024-02-21T23:11:12.326Z,1.00
2024-02-21T23:13:40.397Z,1.10
2024-02-21T23:16:08.105Z,1.00
2024-02-21T23:18:37.826Z,1.05
2024-02-21T23:21:07.434Z,1.15
2024-02-21T23:23:34.823Z,1.25
2024-02-21T23:26:02.279Z,0.93
2024-02-21T23:28:29.808Z,1.20
2024-02-21T23:30:57.233Z,0.95
2024-02-21T23:33:24.629Z,1.00
2024-02-21T23:35:53.352Z,1.10
2024-02-21T23:38:20.732Z,1.00
2024-02-21T23:40:48.162Z,1.13
2024-02-21T23:43:15.569Z,0.95
2024-02-21T23:45:43.530Z,0.95
2024-02-21T23:48:13.804Z,0.88
2024-02-21T23:50:41.260Z,0.82
2024-02-21T23:53:10.582Z,0.63
2024-02-21T23:55:38.044Z,1.05
2024-02-21T23:58:05.618Z,0.60
